Primrose, Nebraska
Current Conditions -  °F | °C
As of 6:35 AM on Saturday 20 Dec 2014 (Local Time) from KBVN Reporting Station
Moderate Fog Moderate Fog  
Wind Chill: -4°   Ceiling: 100
Heat Index: -1°   Visibility: 0.5mi
Dew Point: -2°   Wind: 7mph
Humidity: 94%   Direction: 200°SSW
Pressure: 30.05"   Gusts: NA
Location:  41.62°N, 98.24°W
Report Text: KBVN 201235Z AUTO 20006KT 1/2SM FZFG OVC001 M01/M01 A3005 RMK AO2 T10061015
Loading
Personal Weather Stations






























Interactive Weather Map New forecast layout! Learn more

10-Day Weather Forecast

Advertisements
Track Severe Weather on mobile